Time;durP1;ratioP1;P1;durP2;ratioP2;P2;SDS_P1;SDS_P2;PMS_P1;PMS_P2;Temp;Humidity;BMP_temperature;BMP_pressure;BME280_temperature;BME280_humidity;BME280_pressure;Samples;Min_cycle;Max_cycle;Signal;HPM_P1;HPM_P2
2022/03/11 00:00:05;;;;;;;10.50;1.10;;;;;;;;;;5011760;28;20071;-78
2022/03/11 00:02:30;;;;;;;24.40;1.67;;;;;;;;;;4999805;28;20021;-77
2022/03/11 00:04:57;;;;;;;18.48;1.17;;;;;;;;;;4987209;28;20572;-77
2022/03/11 00:07:23;;;;;;;9.65;1.25;;;;;;;;;;4986604;28;20049;-79
2022/03/11 00:09:50;;;;;;;13.55;1.58;;;;;;;;;;4994497;28;20038;-78
2022/03/11 00:12:15;;;;;;;22.80;2.70;;;;;;;;;;4997715;28;20030;-79
2022/03/11 00:14:41;;;;;;;6.35;0.88;;;;;;;;;;5002371;28;20513;-76
2022/03/11 00:17:07;;;;;;;21.98;1.45;;;;;;;;;;4990963;28;20057;-78
2022/03/11 00:19:33;;;;;;;21.13;1.98;;;;;;;;;;4979604;28;20406;-78
2022/03/11 00:21:58;;;;;;;16.92;1.80;;;;;;;;;;4970579;28;20040;-77
2022/03/11 00:24:24;;;;;;;18.48;1.80;;;;;;;;;;5012345;28;20113;-78
2022/03/11 00:26:49;;;;;;;19.92;2.17;;;;;;;;;;4981383;28;20741;-78
2022/03/11 00:29:15;;;;;;;19.35;2.25;;;;;;;;;;4994508;28;20052;-78
2022/03/11 00:31:41;;;;;;;20.55;2.30;;;;;;;;;;4999763;28;20034;-78
2022/03/11 00:34:06;;;;;;;21.67;2.05;;;;;;;;;;5010991;28;20064;-79
2022/03/11 00:36:32;;;;;;;21.65;1.83;;;;;;;;;;4981232;28;20041;-79
2022/03/11 00:38:58;;;;;;;24.67;2.13;;;;;;;;;;5003354;28;20525;-78
2022/03/11 00:41:23;;;;;;;17.52;2.20;;;;;;;;;;5005168;28;20022;-80
2022/03/11 00:43:49;;;;;;;8.45;1.25;;;;;;;;;;5000230;28;20033;-80
2022/03/11 00:46:14;;;;;;;20.15;2.15;;;;;;;;;;5019215;28;20025;-79
2022/03/11 00:48:40;;;;;;;17.05;1.73;;;;;;;;;;5000033;28;20037;-78
2022/03/11 00:51:05;;;;;;;10.60;1.77;;;;;;;;;;4989551;28;20037;-78
2022/03/11 00:53:31;;;;;;;29.83;3.20;;;;;;;;;;4987267;28;20026;-78
2022/03/11 00:55:56;;;;;;;23.90;2.35;;;;;;;;;;5003273;28;20037;-77
2022/03/11 00:58:22;;;;;;;25.88;2.17;;;;;;;;;;4982473;28;20457;-79
2022/03/11 01:00:48;;;;;;;16.25;2.83;;;;;;;;;;4966446;28;20061;-78
2022/03/11 01:03:13;;;;;;;19.70;2.10;;;;;;;;;;5033039;28;20117;-78
2022/03/11 01:05:39;;;;;;;18.35;1.98;;;;;;;;;;5020870;28;20539;-78
2022/03/11 01:08:05;;;;;;;20.00;2.00;;;;;;;;;;5018023;28;20070;-78
2022/03/11 01:10:31;;;;;;;22.65;1.95;;;;;;;;;;5020345;28;20070;-78
2022/03/11 01:12:57;;;;;;;19.20;2.83;;;;;;;;;;5015671;28;20890;-77
2022/03/11 01:15:22;;;;;;;17.08;3.65;;;;;;;;;;5029332;28;20045;-78
2022/03/11 01:17:48;;;;;;;25.92;2.22;;;;;;;;;;5031052;28;20030;-78
2022/03/11 01:20:14;;;;;;;20.05;2.33;;;;;;;;;;5031721;28;20055;-79
2022/03/11 01:22:40;;;;;;;15.20;2.03;;;;;;;;;;5019240;28;20022;-78
2022/03/11 01:25:06;;;;;;;33.33;2.30;;;;;;;;;;5019661;28;20064;-79
2022/03/11 01:27:32;;;;;;;22.13;2.60;;;;;;;;;;5015721;28;20037;-79
2022/03/11 01:29:58;;;;;;;22.65;3.15;;;;;;;;;;4999122;28;20863;-78
2022/03/11 01:32:24;;;;;;;21.02;2.20;;;;;;;;;;5003870;28;20037;-79
2022/03/11 01:34:49;;;;;;;23.80;2.97;;;;;;;;;;5028650;28;20036;-77
2022/03/11 01:37:15;;;;;;;24.52;2.10;;;;;;;;;;5020288;28;20036;-78
2022/03/11 01:39:40;;;;;;;28.42;2.38;;;;;;;;;;5009056;28;20040;-78
2022/03/11 01:42:07;;;;;;;20.00;2.17;;;;;;;;;;5014486;28;20689;-79
2022/03/11 01:44:33;;;;;;;24.42;2.60;;;;;;;;;;5012258;28;20025;-77
2022/03/11 01:46:59;;;;;;;23.58;2.20;;;;;;;;;;5015365;28;20025;-77
2022/03/11 01:49:25;;;;;;;28.00;2.45;;;;;;;;;;5000738;28;20041;-78
2022/03/11 01:51:50;;;;;;;16.60;2.03;;;;;;;;;;5015690;28;20044;-76
2022/03/11 01:54:16;;;;;;;16.40;2.97;;;;;;;;;;5003521;28;20120;-76
2022/03/11 01:56:41;;;;;;;28.35;2.45;;;;;;;;;;4998654;28;20044;-76
2022/03/11 01:59:10;;;;;;;17.50;2.78;;;;;;;;;;5015830;28;20512;-76
2022/03/11 02:01:36;;;;;;;17.98;2.05;;;;;;;;;;5018619;28;20034;-75
2022/03/11 02:04:02;;;;;;;19.25;2.00;;;;;;;;;;5030820;28;20029;-76
2022/03/11 02:06:29;;;;;;;15.13;2.35;;;;;;;;;;5004483;28;20036;-76
2022/03/11 02:08:55;;;;;;;41.22;2.80;;;;;;;;;;5020472;28;20671;-76
2022/03/11 02:11:21;;;;;;;24.13;2.95;;;;;;;;;;5002661;28;20033;-77
2022/03/11 02:13:58;;;;;;;21.17;3.10;;;;;;;;;;5032901;28;20029;-79
2022/03/11 02:16:29;;;;;;;17.58;2.15;;;;;;;;;;5015995;28;20036;-79
2022/03/11 02:18:55;;;;;;;16.73;2.47;;;;;;;;;;5028300;28;20021;-79
2022/03/11 02:21:22;;;;;;;17.92;2.58;;;;;;;;;;5028905;28;20021;-78
2022/03/11 02:23:52;;;;;;;21.20;2.70;;;;;;;;;;5039458;28;20024;-78
2022/03/11 02:26:22;;;;;;;24.83;2.78;;;;;;;;;;5011829;28;20125;-78
2022/03/11 02:28:49;;;;;;;16.75;2.33;;;;;;;;;;5013182;28;20095;-77
2022/03/11 02:31:15;;;;;;;27.13;2.53;;;;;;;;;;5034795;28;20029;-79
2022/03/11 02:33:41;;;;;;;18.77;3.63;;;;;;;;;;5014519;28;20034;-78
2022/03/11 02:36:07;;;;;;;22.83;3.28;;;;;;;;;;5004779;28;20047;-78
2022/03/11 02:38:33;;;;;;;16.60;2.35;;;;;;;;;;5013225;28;20037;-79
2022/03/11 02:40:59;;;;;;;24.20;2.63;;;;;;;;;;5034858;28;20399;-78
2022/03/11 02:43:25;;;;;;;10.32;2.45;;;;;;;;;;4996386;28;20029;-76
2022/03/11 02:45:51;;;;;;;19.15;3.83;;;;;;;;;;5019256;28;20029;-77
2022/03/11 02:48:17;;;;;;;21.08;3.97;;;;;;;;;;5012338;28;20464;-77
2022/03/11 02:50:43;;;;;;;17.80;2.83;;;;;;;;;;5000646;28;20044;-78
2022/03/11 02:53:08;;;;;;;21.10;3.20;;;;;;;;;;5018640;28;20454;-79
2022/03/11 02:55:34;;;;;;;17.95;3.40;;;;;;;;;;5016888;28;20034;-77
2022/03/11 02:57:59;;;;;;;22.45;3.75;;;;;;;;;;5015293;28;20037;-78
2022/03/11 03:00:25;;;;;;;14.05;3.45;;;;;;;;;;5006126;28;20053;-78
2022/03/11 03:02:51;;;;;;;15.90;3.00;;;;;;;;;;5013772;28;20036;-78
2022/03/11 03:05:17;;;;;;;19.55;2.92;;;;;;;;;;5011559;28;20044;-78
2022/03/11 03:07:43;;;;;;;24.10;3.92;;;;;;;;;;5003011;28;20041;-78
2022/03/11 03:10:10;;;;;;;19.98;4.03;;;;;;;;;;5013681;28;20391;-78
2022/03/11 03:12:39;;;;;;;31.17;4.20;;;;;;;;;;5014358;28;20035;-77
2022/03/11 03:15:07;;;;;;;18.60;3.25;;;;;;;;;;5016361;28;20051;-76
2022/03/11 03:17:33;;;;;;;18.55;2.63;;;;;;;;;;5006712;28;20029;-77
2022/03/11 03:19:58;;;;;;;25.30;3.42;;;;;;;;;;5014645;28;20447;-76
2022/03/11 03:22:24;;;;;;;17.90;3.17;;;;;;;;;;5028616;28;20030;-76
2022/03/11 03:24:49;;;;;;;13.40;3.63;;;;;;;;;;4986781;28;20052;-77
2022/03/11 03:27:16;;;;;;;19.42;3.67;;;;;;;;;;5012772;28;20037;-75
2022/03/11 03:29:41;;;;;;;25.50;3.35;;;;;;;;;;5000941;28;20060;-77
2022/03/11 03:32:07;;;;;;;19.15;2.85;;;;;;;;;;5024981;28;20482;-77
2022/03/11 03:34:35;;;;;;;21.67;2.97;;;;;;;;;;4983680;28;20716;-77
2022/03/11 03:37:07;;;;;;;25.50;2.45;;;;;;;;;;5012111;28;20056;-76
2022/03/11 03:39:33;;;;;;;18.45;3.38;;;;;;;;;;5028554;28;20428;-76
2022/03/11 03:42:00;;;;;;;19.80;3.67;;;;;;;;;;5018358;28;20045;-79
2022/03/11 03:44:25;;;;;;;17.23;2.67;;;;;;;;;;5011885;28;20483;-76
2022/03/11 03:46:51;;;;;;;8.45;2.72;;;;;;;;;;5012137;28;20040;-76
2022/03/11 03:49:16;;;;;;;10.73;2.97;;;;;;;;;;4999327;28;20037;-77
2022/03/11 03:51:42;;;;;;;13.68;3.20;;;;;;;;;;5027730;28;20060;-78
2022/03/11 03:54:12;;;;;;;11.00;2.90;;;;;;;;;;5013719;28;20033;-76
2022/03/11 03:56:38;;;;;;;17.30;3.92;;;;;;;;;;5008821;28;20037;-77
2022/03/11 03:59:05;;;;;;;22.77;3.42;;;;;;;;;;5010156;28;20417;-76
2022/03/11 04:01:39;;;;;;;18.48;3.00;;;;;;;;;;5000382;28;20120;-79
2022/03/11 04:04:05;;;;;;;15.88;3.53;;;;;;;;;;5013037;28;20024;-79
2022/03/11 04:06:32;;;;;;;21.42;2.80;;;;;;;;;;5016578;28;20029;-79
2022/03/11 04:08:57;;;;;;;23.10;4.43;;;;;;;;;;5008584;28;20048;-78
2022/03/11 04:11:24;;;;;;;14.50;3.08;;;;;;;;;;5014943;28;20112;-79
2022/03/11 04:13:50;;;;;;;20.30;3.80;;;;;;;;;;5001227;28;20060;-76
2022/03/11 04:16:16;;;;;;;20.98;4.07;;;;;;;;;;4997411;28;20108;-77
2022/03/11 04:18:42;;;;;;;16.20;2.80;;;;;;;;;;5017684;28;20116;-75
2022/03/11 04:21:08;;;;;;;14.40;3.03;;;;;;;;;;5006611;28;20113;-76
2022/03/11 04:23:33;;;;;;;14.95;3.05;;;;;;;;;;5016201;28;20128;-76
2022/03/11 04:25:59;;;;;;;24.38;3.83;;;;;;;;;;5034532;28;20036;-77
2022/03/11 04:28:24;;;;;;;17.15;3.83;;;;;;;;;;5016355;28;20040;-75
2022/03/11 04:30:50;;;;;;;20.48;4.00;;;;;;;;;;4990531;28;20040;-78
2022/03/11 04:33:15;;;;;;;11.43;2.38;;;;;;;;;;5032689;28;20386;-75
2022/03/11 04:35:41;;;;;;;15.77;3.42;;;;;;;;;;5018131;28;20035;-76
2022/03/11 04:38:06;;;;;;;16.48;4.18;;;;;;;;;;5030129;28;20045;-77
2022/03/11 04:40:32;;;;;;;18.08;3.42;;;;;;;;;;5017997;28;20036;-76
2022/03/11 04:42:58;;;;;;;20.67;4.35;;;;;;;;;;5018658;28;20029;-76
2022/03/11 04:45:24;;;;;;;13.02;3.95;;;;;;;;;;5006293;28;20049;-77
2022/03/11 04:47:49;;;;;;;19.17;3.70;;;;;;;;;;5015405;28;20366;-76
2022/03/11 04:50:15;;;;;;;10.98;3.83;;;;;;;;;;5008385;28;20124;-76
2022/03/11 04:52:40;;;;;;;29.80;4.80;;;;;;;;;;4988779;28;20505;-76
2022/03/11 04:55:06;;;;;;;17.00;4.45;;;;;;;;;;5000026;28;20041;-76
2022/03/11 04:57:32;;;;;;;14.38;4.35;;;;;;;;;;5012212;28;20033;-78
2022/03/11 04:59:57;;;;;;;18.15;4.43;;;;;;;;;;5013750;28;20133;-78
2022/03/11 05:02:27;;;;;;;25.27;5.35;;;;;;;;;;5010419;28;20113;-77
2022/03/11 05:04:54;;;;;;;20.98;4.85;;;;;;;;;;5014834;28;20032;-77
2022/03/11 05:07:19;;;;;;;17.92;4.57;;;;;;;;;;5035101;28;20032;-75
2022/03/11 05:09:46;;;;;;;24.30;5.05;;;;;;;;;;5018527;28;20052;-77
2022/03/11 05:12:11;;;;;;;22.75;5.47;;;;;;;;;;5017635;28;20175;-76
2022/03/11 05:14:37;;;;;;;17.92;5.32;;;;;;;;;;5027968;28;20108;-79
2022/03/11 05:17:03;;;;;;;21.13;5.50;;;;;;;;;;5006568;28;20075;-78
2022/03/11 05:19:29;;;;;;;23.05;6.10;;;;;;;;;;5023193;28;20645;-78
2022/03/11 05:21:54;;;;;;;25.30;5.65;;;;;;;;;;5000872;28;20108;-78
2022/03/11 05:24:20;;;;;;;23.17;5.88;;;;;;;;;;5013898;28;20140;-78
2022/03/11 05:26:45;;;;;;;21.98;6.82;;;;;;;;;;5004486;28;20037;-77
2022/03/11 05:29:12;;;;;;;23.50;4.90;;;;;;;;;;5032558;28;20043;-79
2022/03/11 05:31:37;;;;;;;18.40;5.63;;;;;;;;;;4997800;28;20053;-78
2022/03/11 05:34:03;;;;;;;19.95;6.00;;;;;;;;;;5014842;28;20032;-78
2022/03/11 05:36:28;;;;;;;28.70;6.18;;;;;;;;;;5011725;28;20032;-78
2022/03/11 05:38:54;;;;;;;30.98;6.78;;;;;;;;;;5014832;28;20067;-77
2022/03/11 05:41:19;;;;;;;24.00;5.85;;;;;;;;;;5013845;28;20029;-78
2022/03/11 05:43:45;;;;;;;23.15;5.85;;;;;;;;;;5015993;28;20036;-78
2022/03/11 05:46:11;;;;;;;24.77;5.75;;;;;;;;;;5014040;28;20645;-79
2022/03/11 05:48:37;;;;;;;20.40;5.55;;;;;;;;;;4995476;28;20029;-78
2022/03/11 05:51:02;;;;;;;25.10;5.80;;;;;;;;;;4998964;28;20607;-78
2022/03/11 05:53:28;;;;;;;21.48;6.03;;;;;;;;;;5015732;28;20029;-78
2022/03/11 05:55:53;;;;;;;24.63;7.32;;;;;;;;;;5011654;28;20037;-77
2022/03/11 05:58:19;;;;;;;22.20;5.45;;;;;;;;;;4985011;28;20621;-77
2022/03/11 06:00:45;;;;;;;28.33;5.97;;;;;;;;;;5014060;28;20025;-77
2022/03/11 06:03:11;;;;;;;23.80;6.03;;;;;;;;;;5003500;28;20033;-78
2022/03/11 06:05:36;;;;;;;35.47;6.85;;;;;;;;;;5013485;28;20086;-78
2022/03/11 06:08:02;;;;;;;40.85;6.18;;;;;;;;;;5002327;28;20173;-76
2022/03/11 06:10:27;;;;;;;27.40;5.78;;;;;;;;;;5011458;28;20438;-77
2022/03/11 06:12:53;;;;;;;12.98;4.25;;;;;;;;;;4999864;28;20059;-79
2022/03/11 06:15:18;;;;;;;17.13;4.13;;;;;;;;;;5012799;28;20481;-79
2022/03/11 06:17:44;;;;;;;14.02;3.25;;;;;;;;;;5027177;28;20025;-79
2022/03/11 06:20:13;;;;;;;9.32;3.45;;;;;;;;;;5001383;28;20036;-78
2022/03/11 06:22:47;;;;;;;22.90;3.75;;;;;;;;;;5004924;28;20034;-77
2022/03/11 06:25:12;;;;;;;18.10;3.72;;;;;;;;;;5028526;28;20108;-78
2022/03/11 06:27:37;;;;;;;16.27;3.35;;;;;;;;;;5030888;28;20035;-76
2022/03/11 06:30:03;;;;;;;16.48;3.30;;;;;;;;;;4985806;28;20155;-77
2022/03/11 06:32:29;;;;;;;16.45;3.22;;;;;;;;;;4998630;28;20060;-77
2022/03/11 06:34:54;;;;;;;19.52;2.95;;;;;;;;;;5000608;28;20029;-77
2022/03/11 06:37:20;;;;;;;22.45;3.20;;;;;;;;;;5013196;28;20025;-77
2022/03/11 06:39:45;;;;;;;14.80;2.53;;;;;;;;;;5012257;28;20060;-77
2022/03/11 06:42:11;;;;;;;17.77;2.83;;;;;;;;;;5016748;28;20026;-77
2022/03/11 06:44:36;;;;;;;22.05;2.80;;;;;;;;;;5030033;28;20028;-77
2022/03/11 06:47:02;;;;;;;20.25;3.17;;;;;;;;;;5000222;28;20497;-76
2022/03/11 06:49:27;;;;;;;20.23;3.03;;;;;;;;;;5015137;28;20116;-76
2022/03/11 06:51:53;;;;;;;18.20;2.72;;;;;;;;;;5016612;28;20232;-75
2022/03/11 06:54:18;;;;;;;10.68;2.50;;;;;;;;;;5032991;28;20807;-77
2022/03/11 06:56:44;;;;;;;9.43;2.33;;;;;;;;;;5010537;28;20029;-78
2022/03/11 06:59:09;;;;;;;13.98;2.92;;;;;;;;;;4998801;28;20041;-78
2022/03/11 07:01:35;;;;;;;15.25;2.50;;;;;;;;;;4986260;28;20052;-78
2022/03/11 07:04:02;;;;;;;38.95;3.33;;;;;;;;;;4985027;28;20049;-79
2022/03/11 07:06:28;;;;;;;17.00;2.40;;;;;;;;;;5010470;28;20029;-79
2022/03/11 07:08:54;;;;;;;21.70;2.92;;;;;;;;;;5032281;28;20031;-78
2022/03/11 07:11:19;;;;;;;15.38;2.72;;;;;;;;;;5000500;28;20057;-79
2022/03/11 07:13:45;;;;;;;12.52;2.92;;;;;;;;;;4980861;28;20041;-79
2022/03/11 07:16:12;;;;;;;13.43;3.08;;;;;;;;;;5011317;28;20075;-79
2022/03/11 07:18:37;;;;;;;20.73;2.88;;;;;;;;;;4993995;28;20056;-78
2022/03/11 07:21:03;;;;;;;14.57;2.83;;;;;;;;;;5030763;28;20397;-78
2022/03/11 07:23:29;;;;;;;19.70;3.17;;;;;;;;;;4999059;28;20044;-77
2022/03/11 07:25:55;;;;;;;19.08;3.92;;;;;;;;;;5011177;28;20535;-76
2022/03/11 07:28:20;;;;;;;22.08;4.53;;;;;;;;;;5016028;28;20032;-76
2022/03/11 07:30:47;;;;;;;14.15;3.40;;;;;;;;;;5014186;28;20422;-75
2022/03/11 07:33:12;;;;;;;20.73;3.70;;;;;;;;;;5026087;28;20037;-77
2022/03/11 07:35:38;;;;;;;15.55;3.47;;;;;;;;;;5033779;28;20496;-76
2022/03/11 07:38:04;;;;;;;10.02;3.13;;;;;;;;;;5031020;28;20033;-77
2022/03/11 07:40:29;;;;;;;17.35;3.50;;;;;;;;;;5015728;28;20086;-77
2022/03/11 07:42:55;;;;;;;23.05;4.43;;;;;;;;;;5007434;28;20727;-76
2022/03/11 07:45:21;;;;;;;18.50;4.97;;;;;;;;;;5017857;28;20040;-76
2022/03/11 07:47:46;;;;;;;14.98;4.13;;;;;;;;;;5033314;28;20036;-75
2022/03/11 07:50:13;;;;;;;15.50;4.13;;;;;;;;;;5035558;28;20040;-76
2022/03/11 07:52:39;;;;;;;11.80;4.20;;;;;;;;;;5031341;28;20033;-78
2022/03/11 07:55:09;;;;;;;14.68;4.95;;;;;;;;;;5031240;28;20027;-78
2022/03/11 07:57:36;;;;;;;15.18;4.82;;;;;;;;;;5021394;28;20036;-78
2022/03/11 08:00:08;;;;;;;22.67;5.57;;;;;;;;;;5029046;28;20179;-83
2022/03/11 08:02:34;;;;;;;19.27;5.13;;;;;;;;;;5013733;28;20033;-78
2022/03/11 08:04:59;;;;;;;18.65;5.63;;;;;;;;;;5041173;28;20350;-78
2022/03/11 08:07:25;;;;;;;18.08;5.95;;;;;;;;;;5013102;28;20029;-79
2022/03/11 08:09:50;;;;;;;16.33;6.85;;;;;;;;;;4997395;28;20037;-83
2022/03/11 08:12:16;;;;;;;21.95;7.22;;;;;;;;;;5007567;28;20043;-77
2022/03/11 08:14:41;;;;;;;24.23;8.20;;;;;;;;;;5001329;28;20098;-80
2022/03/11 08:17:07;;;;;;;19.70;8.23;;;;;;;;;;4994521;28;20056;-80
2022/03/11 08:19:33;;;;;;;33.88;7.82;;;;;;;;;;5017005;28;20120;-78
2022/03/11 08:21:58;;;;;;;17.55;7.00;;;;;;;;;;5012208;28;20056;-78
2022/03/11 08:24:24;;;;;;;16.58;7.70;;;;;;;;;;5017311;28;20112;-76
2022/03/11 08:26:49;;;;;;;18.83;7.43;;;;;;;;;;5013876;28;20037;-76
2022/03/11 08:29:16;;;;;;;28.83;8.75;;;;;;;;;;4998869;28;20112;-78
2022/03/11 08:31:43;;;;;;;21.75;8.25;;;;;;;;;;5022396;28;20052;-76
2022/03/11 08:34:09;;;;;;;22.83;6.65;;;;;;;;;;5029040;28;20493;-77
2022/03/11 08:36:34;;;;;;;18.45;6.03;;;;;;;;;;5039252;28;20040;-77
2022/03/11 08:39:00;;;;;;;16.10;4.75;;;;;;;;;;5031676;28;20024;-79
2022/03/11 08:41:27;;;;;;;17.48;4.70;;;;;;;;;;5011290;28;20107;-77
2022/03/11 08:43:53;;;;;;;22.20;5.78;;;;;;;;;;5017832;28;20025;-78
2022/03/11 08:46:18;;;;;;;20.65;6.03;;;;;;;;;;5011531;28;20095;-77
2022/03/11 08:48:44;;;;;;;15.93;5.28;;;;;;;;;;5024607;28;20542;-79
2022/03/11 08:51:10;;;;;;;19.88;4.93;;;;;;;;;;5005216;28;20727;-78
2022/03/11 08:53:36;;;;;;;17.52;4.85;;;;;;;;;;5016171;28;20037;-79
2022/03/11 08:56:03;;;;;;;20.88;4.85;;;;;;;;;;5003712;28;20111;-78
2022/03/11 08:58:28;;;;;;;21.85;5.20;;;;;;;;;;5026651;28;20053;-77
2022/03/11 09:00:54;;;;;;;19.20;4.05;;;;;;;;;;5018407;28;20048;-77
2022/03/11 09:03:19;;;;;;;18.70;3.95;;;;;;;;;;5028260;28;20029;-77
2022/03/11 09:05:45;;;;;;;19.08;4.20;;;;;;;;;;5018770;28;20454;-78
2022/03/11 09:08:10;;;;;;;25.63;4.25;;;;;;;;;;5002991;28;20043;-79
2022/03/11 09:10:36;;;;;;;18.00;4.10;;;;;;;;;;5006365;28;20033;-78
2022/03/11 09:13:02;;;;;;;30.98;4.72;;;;;;;;;;5015901;28;20402;-77
2022/03/11 09:15:28;;;;;;;30.92;4.45;;;;;;;;;;5033096;28;20036;-77
2022/03/11 09:17:53;;;;;;;15.32;3.42;;;;;;;;;;5005177;28;20025;-78
2022/03/11 09:20:19;;;;;;;17.95;4.18;;;;;;;;;;5034064;28;20039;-78
2022/03/11 09:22:45;;;;;;;15.98;3.25;;;;;;;;;;5021804;28;20221;-77
2022/03/11 09:25:12;;;;;;;27.42;4.18;;;;;;;;;;5012751;28;20036;-79
2022/03/11 09:27:39;;;;;;;20.60;3.70;;;;;;;;;;5015566;28;20063;-77
2022/03/11 09:30:07;;;;;;;24.73;3.60;;;;;;;;;;5036143;28;20063;-78
2022/03/11 09:32:34;;;;;;;21.13;4.10;;;;;;;;;;5028260;28;20438;-77
2022/03/11 09:34:59;;;;;;;22.42;3.90;;;;;;;;;;5041351;28;20048;-78
2022/03/11 09:37:26;;;;;;;22.98;4.22;;;;;;;;;;5031253;28;20045;-77
2022/03/11 09:39:52;;;;;;;22.48;3.00;;;;;;;;;;5031430;28;20033;-79
2022/03/11 09:42:18;;;;;;;16.52;3.42;;;;;;;;;;5035172;28;20020;-78
2022/03/11 09:44:50;;;;;;;31.52;3.13;;;;;;;;;;5015850;28;20512;-78
2022/03/11 09:48:05;;;;;;;21.88;2.92;;;;;;;;;;5037762;28;20033;-80
2022/03/11 09:50:30;;;;;;;26.85;3.20;;;;;;;;;;5000969;28;20724;-77
2022/03/11 09:52:57;;;;;;;20.42;2.63;;;;;;;;;;5019371;28;20079;-80
2022/03/11 09:55:22;;;;;;;26.00;2.67;;;;;;;;;;5029507;28;20029;-77
2022/03/11 09:57:48;;;;;;;19.13;2.72;;;;;;;;;;5029777;28;20029;-77
2022/03/11 10:00:15;;;;;;;32.28;3.53;;;;;;;;;;4982580;28;20063;-77
2022/03/11 10:02:43;;;;;;;22.60;3.30;;;;;;;;;;5001638;28;20117;-77
2022/03/11 10:05:12;;;;;;;19.70;2.78;;;;;;;;;;5013330;28;20552;-78
2022/03/11 10:07:38;;;;;;;22.42;3.40;;;;;;;;;;5013977;28;20037;-77
2022/03/11 10:10:14;;;;;;;19.70;2.78;;;;;;;;;;5018444;28;20032;-78
2022/03/11 10:12:45;;;;;;;25.65;2.97;;;;;;;;;;5015978;28;20037;-79
2022/03/11 10:15:12;;;;;;;14.07;3.15;;;;;;;;;;5017135;28;20605;-78
2022/03/11 10:17:42;;;;;;;23.83;3.65;;;;;;;;;;5003353;28;20033;-77
2022/03/11 10:20:13;;;;;;;19.27;3.13;;;;;;;;;;5017304;28;20044;-81
2022/03/11 10:22:44;;;;;;;26.27;3.60;;;;;;;;;;5003706;28;20033;-77
2022/03/11 10:25:16;;;;;;;18.20;3.13;;;;;;;;;;5015439;28;20057;-79
2022/03/11 10:28:03;;;;;;;19.33;2.63;;;;;;;;;;5013778;28;20080;-79
2022/03/11 10:30:31;;;;;;;16.75;2.20;;;;;;;;;;5025231;28;20336;-77
2022/03/11 10:32:59;;;;;;;19.33;2.95;;;;;;;;;;5036635;28;20083;-77
2022/03/11 10:35:36;;;;;;;14.90;2.47;;;;;;;;;;5034296;28;20037;-77
2022/03/11 10:38:10;;;;;;;13.68;3.50;;;;;;;;;;5030015;28;20029;-77
2022/03/11 10:40:50;;;;;;;18.95;3.15;;;;;;;;;;5041621;28;20021;-77
2022/03/11 10:43:16;;;;;;;12.20;2.50;;;;;;;;;;5017216;28;20025;-78
2022/03/11 10:46:01;;;;;;;10.82;2.72;;;;;;;;;;5014891;28;20067;-77
2022/03/11 10:48:47;;;;;;;18.45;3.10;;;;;;;;;;5018413;28;20033;-77
2022/03/11 10:51:24;;;;;;;9.00;1.85;;;;;;;;;;5032623;28;20483;-77
2022/03/11 10:53:50;;;;;;;9.85;1.90;;;;;;;;;;5019967;28;20087;-78
2022/03/11 10:56:29;;;;;;;14.13;2.20;;;;;;;;;;5004558;28;20037;-76
2022/03/11 10:58:57;;;;;;;10.25;1.73;;;;;;;;;;5009575;28;20115;-77
2022/03/11 11:01:43;;;;;;;7.90;1.88;;;;;;;;;;5011521;28;20026;-77
2022/03/11 11:04:13;;;;;;;12.35;1.33;;;;;;;;;;5015050;28;20044;-77
2022/03/11 11:06:39;;;;;;;7.43;1.55;;;;;;;;;;5009898;28;20067;-77
2022/03/11 11:09:07;;;;;;;14.10;2.53;;;;;;;;;;5004422;28;20029;-77
2022/03/11 11:11:33;;;;;;;12.43;1.70;;;;;;;;;;5032223;28;20028;-77
2022/03/11 11:14:00;;;;;;;10.90;2.20;;;;;;;;;;5010506;28;20033;-79
2022/03/11 11:16:30;;;;;;;12.88;2.50;;;;;;;;;;5014057;28;20039;-77
2022/03/11 11:18:59;;;;;;;12.65;2.42;;;;;;;;;;5031298;28;20021;-78
2022/03/11 11:21:26;;;;;;;9.57;2.63;;;;;;;;;;5017254;28;20029;-77
2022/03/11 11:23:57;;;;;;;21.00;2.47;;;;;;;;;;5030444;28;20520;-78
2022/03/11 11:26:24;;;;;;;14.18;2.90;;;;;;;;;;5030507;28;20033;-77
2022/03/11 11:29:00;;;;;;;20.48;4.18;;;;;;;;;;5012006;28;20029;-77
2022/03/11 11:31:26;;;;;;;17.20;3.28;;;;;;;;;;5029179;28;20972;-78
2022/03/11 11:33:52;;;;;;;12.60;2.70;;;;;;;;;;5034785;28;20107;-78
2022/03/11 11:36:34;;;;;;;16.30;4.07;;;;;;;;;;5014390;28;20025;-77
2022/03/11 11:39:08;;;;;;;22.02;4.20;;;;;;;;;;5013457;28;20560;-78
2022/03/11 11:41:35;;;;;;;20.98;3.65;;;;;;;;;;5035415;28;20037;-77
2022/03/11 11:44:04;;;;;;;16.05;3.38;;;;;;;;;;4999737;28;20160;-78
2022/03/11 11:46:35;;;;;;;20.70;3.70;;;;;;;;;;5031876;28;20032;-78
2022/03/11 11:49:06;;;;;;;26.13;4.45;;;;;;;;;;5028308;28;20057;-77
2022/03/11 11:51:32;;;;;;;21.55;3.55;;;;;;;;;;5017312;28;20036;-77
2022/03/11 11:54:08;;;;;;;23.40;5.03;;;;;;;;;;5014211;28;20021;-76
2022/03/11 11:56:39;;;;;;;17.83;3.50;;;;;;;;;;5016222;28;20032;-77
2022/03/11 11:59:20;;;;;;;14.35;2.75;;;;;;;;;;5013248;28;20560;-76
2022/03/11 12:01:52;;;;;;;14.82;3.55;;;;;;;;;;5013950;28;20030;-77
2022/03/11 12:04:32;;;;;;;9.63;3.17;;;;;;;;;;5008956;28;20057;-77
2022/03/11 12:07:00;;;;;;;8.65;2.58;;;;;;;;;;5009615;28;20036;-77
2022/03/11 12:12:18;;;;;;;13.73;2.92;;;;;;;;;;5008262;28;20065;-77
2022/03/11 12:17:47;;;;;;;20.83;3.72;;;;;;;;;;5012845;28;20033;-76
2022/03/11 12:20:39;;;;;;;12.98;2.35;;;;;;;;;;5015056;28;20029;-76
2022/03/11 12:23:08;;;;;;;11.57;2.80;;;;;;;;;;5012226;28;20036;-76
2022/03/11 12:25:35;;;;;;;9.32;2.72;;;;;;;;;;5010512;28;20152;-76
2022/03/11 12:28:04;;;;;;;12.52;2.50;;;;;;;;;;5005691;28;20061;-76
2022/03/11 12:30:33;;;;;;;10.48;2.47;;;;;;;;;;5008097;28;20112;-77
2022/03/11 12:33:10;;;;;;;11.90;1.65;;;;;;;;;;5018295;28;20189;-77
2022/03/11 12:35:37;;;;;;;11.93;2.08;;;;;;;;;;5014718;28;20030;-78
2022/03/11 12:38:04;;;;;;;8.13;1.77;;;;;;;;;;5012793;28;20075;-77
2022/03/11 12:40:31;;;;;;;9.63;1.92;;;;;;;;;;5013259;28;20530;-77
2022/03/11 12:43:12;;;;;;;6.03;1.50;;;;;;;;;;5012116;28;20627;-76
2022/03/11 12:45:41;;;;;;;6.80;1.58;;;;;;;;;;5014880;28;20037;-77
2022/03/11 12:48:08;;;;;;;8.95;1.35;;;;;;;;;;5016825;28;20068;-77
2022/03/11 12:50:35;;;;;;;5.85;1.17;;;;;;;;;;5017637;28;20572;-77
2022/03/11 12:53:01;;;;;;;4.47;1.27;;;;;;;;;;5019156;28;20038;-77
2022/03/11 12:55:33;;;;;;;6.07;1.48;;;;;;;;;;5018181;28;20037;-77
2022/03/11 12:58:04;;;;;;;12.25;1.40;;;;;;;;;;5015958;28;20099;-77
2022/03/11 13:00:32;;;;;;;5.73;1.70;;;;;;;;;;5014316;28;20166;-77
2022/03/11 13:02:58;;;;;;;10.68;2.38;;;;;;;;;;5018538;28;20017;-77
2022/03/11 13:05:28;;;;;;;8.77;1.58;;;;;;;;;;5022340;28;20059;-76
2022/03/11 13:08:00;;;;;;;4.80;1.38;;;;;;;;;;5001758;28;20026;-77
2022/03/11 13:10:27;;;;;;;3.75;1.35;;;;;;;;;;5017346;28;20537;-77
2022/03/11 13:12:54;;;;;;;9.90;1.77;;;;;;;;;;5015239;28;20061;-75
2022/03/11 13:15:22;;;;;;;10.43;1.67;;;;;;;;;;5015248;28;20067;-76
2022/03/11 13:17:53;;;;;;;1.90;0.88;;;;;;;;;;5018275;28;20040;-77
2022/03/11 13:20:26;;;;;;;7.88;1.67;;;;;;;;;;5011722;28;20628;-77
2022/03/11 13:22:51;;;;;;;3.17;0.60;;;;;;;;;;5032559;28;20505;-78
2022/03/11 13:25:23;;;;;;;6.20;0.73;;;;;;;;;;5007766;28;20163;-77
2022/03/11 13:27:49;;;;;;;2.22;0.65;;;;;;;;;;5020323;28;20056;-78
2022/03/11 13:30:14;;;;;;;0.93;0.43;;;;;;;;;;5031805;28;20036;-78
2022/03/11 13:32:40;;;;;;;1.85;0.25;;;;;;;;;;5013907;28;20033;-78
2022/03/11 13:35:06;;;;;;;0.38;0.10;;;;;;;;;;5007425;28;20044;-78
2022/03/11 13:37:42;;;;;;;1.10;0.95;;;;;;;;;;5005576;28;20071;-78
2022/03/11 13:40:11;;;;;;;1.33;0.30;;;;;;;;;;5034646;28;20112;-80
2022/03/11 13:42:36;;;;;;;1.13;0.20;;;;;;;;;;5003620;28;20343;-78
2022/03/11 13:45:07;;;;;;;2.30;0.20;;;;;;;;;;5013247;28;20037;-79
2022/03/11 13:47:32;;;;;;;1.65;0.20;;;;;;;;;;4997645;28;20029;-79
2022/03/11 13:50:07;;;;;;;3.67;0.30;;;;;;;;;;5001709;28;20037;-80
2022/03/11 13:52:43;;;;;;;2.47;0.63;;;;;;;;;;5015082;28;20036;-80
2022/03/11 13:55:14;;;;;;;5.60;0.30;;;;;;;;;;5030659;28;20044;-79
2022/03/11 13:57:40;;;;;;;2.15;0.25;;;;;;;;;;5013379;28;20029;-78
2022/03/11 14:00:21;;;;;;;3.70;0.38;;;;;;;;;;5011839;28;20552;-78
2022/03/11 14:02:47;;;;;;;1.60;0.30;;;;;;;;;;5018318;28;20159;-79
2022/03/11 14:05:18;;;;;;;1.98;0.30;;;;;;;;;;4998337;28;20052;-78
2022/03/11 14:07:55;;;;;;;1.40;0.40;;;;;;;;;;5034304;28;20032;-82
2022/03/11 14:10:24;;;;;;;3.90;0.40;;;;;;;;;;5028255;28;20131;-79
2022/03/11 14:13:04;;;;;;;1.73;0.20;;;;;;;;;;5015998;28;20108;-79
2022/03/11 14:15:35;;;;;;;9.02;0.60;;;;;;;;;;5006747;28;20415;-79
2022/03/11 14:18:00;;;;;;;2.30;0.30;;;;;;;;;;5034958;28;20020;-80
2022/03/11 14:20:26;;;;;;;8.93;0.40;;;;;;;;;;5035933;28;20040;-79
2022/03/11 14:22:52;;;;;;;1.33;0.20;;;;;;;;;;5016606;28;20708;-79
2022/03/11 14:25:17;;;;;;;2.67;0.10;;;;;;;;;;5016268;28;20566;-81
2022/03/11 14:27:43;;;;;;;0.30;0.10;;;;;;;;;;5017167;28;20029;-79
2022/03/11 14:30:09;;;;;;;1.08;0.20;;;;;;;;;;5001717;28;20102;-79
2022/03/11 14:32:35;;;;;;;1.67;0.10;;;;;;;;;;5032383;28;20505;-80
2022/03/11 14:35:01;;;;;;;1.73;0.20;;;;;;;;;;5002950;28;20497;-79
2022/03/11 14:37:27;;;;;;;0.70;0.17;;;;;;;;;;5017760;28;20071;-78